sensor_id;sensor_type;location;lat;lon;timestamp;P1;durP1;ratioP1;P2;durP2;ratioP2
74541;SDS011;63015;45.378;20.360;2022-12-11T00:00:50;5.53;;;2.92;;
74541;SDS011;63015;45.378;20.360;2022-12-11T00:02:52;6.97;;;2.95;;
74541;SDS011;63015;45.378;20.360;2022-12-11T00:04:53;7.13;;;2.67;;
74541;SDS011;63015;45.378;20.360;2022-12-11T00:06:54;5.22;;;2.10;;
74541;SDS011;63015;45.378;20.360;2022-12-11T00:08:54;3.95;;;2.08;;
74541;SDS011;63015;45.378;20.360;2022-12-11T00:10:55;5.28;;;2.25;;
74541;SDS011;63015;45.378;20.360;2022-12-11T00:12:55;4.80;;;2.10;;
74541;SDS011;63015;45.378;20.360;2022-12-11T00:14:56;6.93;;;2.40;;
74541;SDS011;63015;45.378;20.360;2022-12-11T00:16:56;5.05;;;2.10;;
74541;SDS011;63015;45.378;20.360;2022-12-11T00:18:57;4.10;;;1.90;;
74541;SDS011;63015;45.378;20.360;2022-12-11T00:21:01;3.90;;;1.75;;
74541;SDS011;63015;45.378;20.360;2022-12-11T00:23:05;7.68;;;2.10;;
74541;SDS011;63015;45.378;20.360;2022-12-11T00:25:06;4.28;;;2.22;;
74541;SDS011;63015;45.378;20.360;2022-12-11T00:27:07;3.85;;;1.80;;
74541;SDS011;63015;45.378;20.360;2022-12-11T00:29:08;4.78;;;2.20;;
74541;SDS011;63015;45.378;20.360;2022-12-11T00:31:15;5.63;;;2.60;;
74541;SDS011;63015;45.378;20.360;2022-12-11T00:33:17;8.82;;;3.85;;
74541;SDS011;63015;45.378;20.360;2022-12-11T00:35:17;7.28;;;3.50;;
74541;SDS011;63015;45.378;20.360;2022-12-11T00:37:18;45.67;;;15.98;;
74541;SDS011;63015;45.378;20.360;2022-12-11T00:39:19;23.67;;;10.18;;
74541;SDS011;63015;45.378;20.360;2022-12-11T00:41:19;8.25;;;3.97;;
74541;SDS011;63015;45.378;20.360;2022-12-11T00:43:20;6.47;;;1.85;;
74541;SDS011;63015;45.378;20.360;2022-12-11T00:45:20;5.13;;;1.92;;
74541;SDS011;63015;45.378;20.360;2022-12-11T00:47:21;4.35;;;2.03;;
74541;SDS011;63015;45.378;20.360;2022-12-11T00:49:21;3.38;;;1.42;;
74541;SDS011;63015;45.378;20.360;2022-12-11T00:51:22;4.22;;;1.48;;
74541;SDS011;63015;45.378;20.360;2022-12-11T00:53:23;2.88;;;1.30;;
74541;SDS011;63015;45.378;20.360;2022-12-11T00:55:23;2.47;;;1.25;;
74541;SDS011;63015;45.378;20.360;2022-12-11T00:57:24;3.25;;;1.20;;
74541;SDS011;63015;45.378;20.360;2022-12-11T00:59:25;4.53;;;1.15;;
74541;SDS011;63015;45.378;20.360;2022-12-11T01:01:27;2.97;;;1.38;;
74541;SDS011;63015;45.378;20.360;2022-12-11T01:03:28;1.73;;;0.82;;
74541;SDS011;63015;45.378;20.360;2022-12-11T01:05:28;2.22;;;0.82;;
74541;SDS011;63015;45.378;20.360;2022-12-11T01:07:29;1.83;;;0.73;;
74541;SDS011;63015;45.378;20.360;2022-12-11T01:09:29;1.77;;;0.40;;
74541;SDS011;63015;45.378;20.360;2022-12-11T01:11:49;2.70;;;1.00;;
74541;SDS011;63015;45.378;20.360;2022-12-11T01:13:50;2.30;;;1.08;;
74541;SDS011;63015;45.378;20.360;2022-12-11T01:15:50;2.10;;;0.80;;
74541;SDS011;63015;45.378;20.360;2022-12-11T01:17:51;2.13;;;0.73;;
74541;SDS011;63015;45.378;20.360;2022-12-11T01:19:52;1.17;;;0.30;;
74541;SDS011;63015;45.378;20.360;2022-12-11T01:21:53;1.63;;;0.40;;
74541;SDS011;63015;45.378;20.360;2022-12-11T01:23:54;1.70;;;0.40;;
74541;SDS011;63015;45.378;20.360;2022-12-11T01:25:55;3.75;;;0.40;;
74541;SDS011;63015;45.378;20.360;2022-12-11T01:27:55;1.77;;;0.52;;
74541;SDS011;63015;45.378;20.360;2022-12-11T01:29:56;1.67;;;0.50;;
74541;SDS011;63015;45.378;20.360;2022-12-11T01:31:56;2.50;;;0.43;;
74541;SDS011;63015;45.378;20.360;2022-12-11T01:33:57;2.40;;;0.50;;
74541;SDS011;63015;45.378;20.360;2022-12-11T01:35:57;2.03;;;0.47;;
74541;SDS011;63015;45.378;20.360;2022-12-11T01:37:58;1.83;;;0.30;;
74541;SDS011;63015;45.378;20.360;2022-12-11T01:39:59;2.22;;;0.70;;
74541;SDS011;63015;45.378;20.360;2022-12-11T01:42:00;1.83;;;0.63;;
74541;SDS011;63015;45.378;20.360;2022-12-11T01:44:06;1.95;;;0.32;;
74541;SDS011;63015;45.378;20.360;2022-12-11T01:46:27;2.20;;;0.43;;
74541;SDS011;63015;45.378;20.360;2022-12-11T01:48:29;1.50;;;0.40;;
74541;SDS011;63015;45.378;20.360;2022-12-11T01:50:32;3.38;;;0.60;;
74541;SDS011;63015;45.378;20.360;2022-12-11T01:52:37;3.90;;;1.33;;
74541;SDS011;63015;45.378;20.360;2022-12-11T01:54:40;5.65;;;2.15;;
74541;SDS011;63015;45.378;20.360;2022-12-11T01:56:42;5.78;;;3.00;;
74541;SDS011;63015;45.378;20.360;2022-12-11T01:58:46;3.70;;;1.77;;
74541;SDS011;63015;45.378;20.360;2022-12-11T02:00:50;4.63;;;2.45;;
74541;SDS011;63015;45.378;20.360;2022-12-11T02:02:52;3.45;;;1.27;;
74541;SDS011;63015;45.378;20.360;2022-12-11T02:04:53;4.13;;;2.17;;
74541;SDS011;63015;45.378;20.360;2022-12-11T02:06:54;4.72;;;2.15;;
74541;SDS011;63015;45.378;20.360;2022-12-11T02:08:54;4.93;;;2.83;;
74541;SDS011;63015;45.378;20.360;2022-12-11T02:11:01;5.45;;;2.45;;
74541;SDS011;63015;45.378;20.360;2022-12-11T02:13:12;4.72;;;2.25;;
74541;SDS011;63015;45.378;20.360;2022-12-11T02:15:27;6.05;;;3.78;;
74541;SDS011;63015;45.378;20.360;2022-12-11T02:22:45;3.92;;;1.80;;
74541;SDS011;63015;45.378;20.360;2022-12-11T02:25:03;5.38;;;2.42;;
74541;SDS011;63015;45.378;20.360;2022-12-11T02:29:29;2.72;;;1.13;;
74541;SDS011;63015;45.378;20.360;2022-12-11T02:31:50;3.78;;;1.70;;
74541;SDS011;63015;45.378;20.360;2022-12-11T02:34:02;5.03;;;2.45;;
74541;SDS011;63015;45.378;20.360;2022-12-11T02:36:10;4.85;;;2.05;;
74541;SDS011;63015;45.378;20.360;2022-12-11T02:38:27;5.70;;;1.92;;
74541;SDS011;63015;45.378;20.360;2022-12-11T02:40:34;3.50;;;1.25;;
74541;SDS011;63015;45.378;20.360;2022-12-11T02:42:39;4.50;;;2.08;;
74541;SDS011;63015;45.378;20.360;2022-12-11T02:44:42;5.90;;;2.22;;
74541;SDS011;63015;45.378;20.360;2022-12-11T02:46:44;5.03;;;2.22;;
74541;SDS011;63015;45.378;20.360;2022-12-11T02:48:45;6.25;;;2.38;;
74541;SDS011;63015;45.378;20.360;2022-12-11T02:50:50;4.40;;;1.98;;
74541;SDS011;63015;45.378;20.360;2022-12-11T02:52:52;3.70;;;1.50;;
74541;SDS011;63015;45.378;20.360;2022-12-11T02:54:55;5.15;;;1.98;;
74541;SDS011;63015;45.378;20.360;2022-12-11T02:57:04;5.97;;;2.92;;
74541;SDS011;63015;45.378;20.360;2022-12-11T02:59:16;4.38;;;1.95;;
74541;SDS011;63015;45.378;20.360;2022-12-11T03:01:23;6.13;;;2.08;;
74541;SDS011;63015;45.378;20.360;2022-12-11T03:03:24;3.75;;;1.98;;
74541;SDS011;63015;45.378;20.360;2022-12-11T03:05:25;5.60;;;2.38;;
74541;SDS011;63015;45.378;20.360;2022-12-11T03:07:27;4.28;;;2.05;;
74541;SDS011;63015;45.378;20.360;2022-12-11T03:09:33;7.68;;;2.33;;
74541;SDS011;63015;45.378;20.360;2022-12-11T03:11:33;4.88;;;2.15;;
74541;SDS011;63015;45.378;20.360;2022-12-11T03:13:34;6.03;;;2.80;;
74541;SDS011;63015;45.378;20.360;2022-12-11T03:18:05;5.63;;;1.88;;
74541;SDS011;63015;45.378;20.360;2022-12-11T03:25:20;5.70;;;1.95;;
74541;SDS011;63015;45.378;20.360;2022-12-11T03:29:47;3.35;;;1.48;;
74541;SDS011;63015;45.378;20.360;2022-12-11T03:31:59;4.93;;;2.50;;
74541;SDS011;63015;45.378;20.360;2022-12-11T03:34:01;7.43;;;2.35;;
74541;SDS011;63015;45.378;20.360;2022-12-11T03:36:16;5.82;;;2.28;;
74541;SDS011;63015;45.378;20.360;2022-12-11T03:38:28;6.30;;;2.85;;
74541;SDS011;63015;45.378;20.360;2022-12-11T03:40:33;6.80;;;2.90;;
74541;SDS011;63015;45.378;20.360;2022-12-11T03:42:37;7.18;;;2.33;;
74541;SDS011;63015;45.378;20.360;2022-12-11T03:44:39;7.57;;;4.15;;
74541;SDS011;63015;45.378;20.360;2022-12-11T03:46:43;5.60;;;1.83;;
74541;SDS011;63015;45.378;20.360;2022-12-11T03:48:45;5.97;;;2.70;;
74541;SDS011;63015;45.378;20.360;2022-12-11T03:50:48;7.15;;;2.47;;
74541;SDS011;63015;45.378;20.360;2022-12-11T03:52:49;7.63;;;3.72;;
74541;SDS011;63015;45.378;20.360;2022-12-11T03:54:51;4.82;;;2.20;;
74541;SDS011;63015;45.378;20.360;2022-12-11T03:56:57;8.50;;;3.13;;
74541;SDS011;63015;45.378;20.360;2022-12-11T03:59:00;4.25;;;1.88;;
74541;SDS011;63015;45.378;20.360;2022-12-11T04:01:01;5.10;;;2.35;;
74541;SDS011;63015;45.378;20.360;2022-12-11T04:03:01;4.95;;;2.22;;
74541;SDS011;63015;45.378;20.360;2022-12-11T04:05:15;6.57;;;3.03;;
74541;SDS011;63015;45.378;20.360;2022-12-11T04:07:16;5.93;;;2.50;;
74541;SDS011;63015;45.378;20.360;2022-12-11T04:09:16;5.70;;;2.30;;
74541;SDS011;63015;45.378;20.360;2022-12-11T04:11:17;6.60;;;3.10;;
74541;SDS011;63015;45.378;20.360;2022-12-11T04:13:36;6.18;;;2.47;;
74541;SDS011;63015;45.378;20.360;2022-12-11T04:15:37;7.22;;;3.03;;
74541;SDS011;63015;45.378;20.360;2022-12-11T04:17:38;5.30;;;2.40;;
74541;SDS011;63015;45.378;20.360;2022-12-11T04:19:58;9.10;;;3.67;;
74541;SDS011;63015;45.378;20.360;2022-12-11T04:22:17;6.07;;;2.33;;
74541;SDS011;63015;45.378;20.360;2022-12-11T04:24:37;5.95;;;2.25;;
74541;SDS011;63015;45.378;20.360;2022-12-11T04:26:37;5.03;;;2.28;;
74541;SDS011;63015;45.378;20.360;2022-12-11T04:28:38;5.10;;;2.03;;
74541;SDS011;63015;45.378;20.360;2022-12-11T04:30:40;5.18;;;2.17;;
74541;SDS011;63015;45.378;20.360;2022-12-11T04:32:40;8.23;;;3.70;;
74541;SDS011;63015;45.378;20.360;2022-12-11T04:34:41;5.07;;;2.50;;
74541;SDS011;63015;45.378;20.360;2022-12-11T04:36:42;5.38;;;2.33;;
74541;SDS011;63015;45.378;20.360;2022-12-11T04:38:42;6.40;;;2.47;;
74541;SDS011;63015;45.378;20.360;2022-12-11T04:40:43;6.30;;;2.60;;
74541;SDS011;63015;45.378;20.360;2022-12-11T04:42:44;5.68;;;2.90;;
74541;SDS011;63015;45.378;20.360;2022-12-11T04:44:45;9.30;;;4.07;;
74541;SDS011;63015;45.378;20.360;2022-12-11T04:46:45;4.88;;;2.25;;
74541;SDS011;63015;45.378;20.360;2022-12-11T04:48:46;6.22;;;2.40;;
74541;SDS011;63015;45.378;20.360;2022-12-11T04:50:47;6.53;;;2.95;;
74541;SDS011;63015;45.378;20.360;2022-12-11T04:52:48;4.88;;;2.10;;
74541;SDS011;63015;45.378;20.360;2022-12-11T04:54:48;4.90;;;1.73;;
74541;SDS011;63015;45.378;20.360;2022-12-11T04:56:50;7.53;;;3.03;;
74541;SDS011;63015;45.378;20.360;2022-12-11T04:58:51;5.70;;;2.75;;
74541;SDS011;63015;45.378;20.360;2022-12-11T05:00:51;7.25;;;3.15;;
74541;SDS011;63015;45.378;20.360;2022-12-11T05:02:52;6.32;;;2.75;;
74541;SDS011;63015;45.378;20.360;2022-12-11T05:04:53;5.43;;;2.67;;
74541;SDS011;63015;45.378;20.360;2022-12-11T05:06:53;5.15;;;2.65;;
74541;SDS011;63015;45.378;20.360;2022-12-11T05:08:54;3.38;;;1.73;;
74541;SDS011;63015;45.378;20.360;2022-12-11T05:10:58;5.50;;;2.75;;
74541;SDS011;63015;45.378;20.360;2022-12-11T05:13:00;8.38;;;3.83;;
74541;SDS011;63015;45.378;20.360;2022-12-11T05:15:01;5.10;;;2.80;;
74541;SDS011;63015;45.378;20.360;2022-12-11T05:17:02;4.35;;;2.15;;
74541;SDS011;63015;45.378;20.360;2022-12-11T05:19:02;8.20;;;3.38;;
74541;SDS011;63015;45.378;20.360;2022-12-11T05:21:04;3.92;;;1.63;;
74541;SDS011;63015;45.378;20.360;2022-12-11T05:25:07;5.60;;;2.47;;
74541;SDS011;63015;45.378;20.360;2022-12-11T05:27:08;5.32;;;2.78;;
74541;SDS011;63015;45.378;20.360;2022-12-11T05:29:09;7.20;;;2.67;;
74541;SDS011;63015;45.378;20.360;2022-12-11T05:31:14;4.43;;;2.20;;
74541;SDS011;63015;45.378;20.360;2022-12-11T05:33:17;3.42;;;1.77;;
74541;SDS011;63015;45.378;20.360;2022-12-11T05:35:17;5.00;;;1.92;;
74541;SDS011;63015;45.378;20.360;2022-12-11T05:37:18;4.82;;;2.40;;
74541;SDS011;63015;45.378;20.360;2022-12-11T05:39:18;5.65;;;2.28;;
74541;SDS011;63015;45.378;20.360;2022-12-11T05:41:22;3.03;;;1.48;;
74541;SDS011;63015;45.378;20.360;2022-12-11T05:43:24;4.57;;;2.17;;
74541;SDS011;63015;45.378;20.360;2022-12-11T05:45:26;5.30;;;2.20;;
74541;SDS011;63015;45.378;20.360;2022-12-11T05:47:27;6.28;;;2.58;;
74541;SDS011;63015;45.378;20.360;2022-12-11T05:49:27;7.80;;;3.47;;
74541;SDS011;63015;45.378;20.360;2022-12-11T05:51:28;4.18;;;1.92;;
74541;SDS011;63015;45.378;20.360;2022-12-11T05:53:29;6.55;;;3.13;;
74541;SDS011;63015;45.378;20.360;2022-12-11T05:55:33;7.38;;;2.42;;
74541;SDS011;63015;45.378;20.360;2022-12-11T05:59:34;3.13;;;1.67;;
74541;SDS011;63015;45.378;20.360;2022-12-11T06:01:38;8.52;;;3.75;;
74541;SDS011;63015;45.378;20.360;2022-12-11T06:03:40;16.90;;;6.72;;
74541;SDS011;63015;45.378;20.360;2022-12-11T06:05:41;11.93;;;5.15;;
74541;SDS011;63015;45.378;20.360;2022-12-11T06:07:42;5.05;;;2.70;;
74541;SDS011;63015;45.378;20.360;2022-12-11T06:09:43;3.42;;;1.73;;
74541;SDS011;63015;45.378;20.360;2022-12-11T06:11:43;7.65;;;3.55;;
74541;SDS011;63015;45.378;20.360;2022-12-11T06:13:44;5.75;;;3.05;;
74541;SDS011;63015;45.378;20.360;2022-12-11T06:15:44;5.72;;;2.42;;
74541;SDS011;63015;45.378;20.360;2022-12-11T06:17:45;6.05;;;3.15;;
74541;SDS011;63015;45.378;20.360;2022-12-11T06:19:45;7.38;;;4.03;;
74541;SDS011;63015;45.378;20.360;2022-12-11T06:21:46;7.32;;;3.80;;
74541;SDS011;63015;45.378;20.360;2022-12-11T06:23:48;6.45;;;2.58;;
74541;SDS011;63015;45.378;20.360;2022-12-11T06:25:51;9.35;;;3.80;;
74541;SDS011;63015;45.378;20.360;2022-12-11T06:27:51;5.53;;;2.92;;
74541;SDS011;63015;45.378;20.360;2022-12-11T06:29:52;9.90;;;4.53;;
74541;SDS011;63015;45.378;20.360;2022-12-11T06:31:52;6.75;;;3.83;;
74541;SDS011;63015;45.378;20.360;2022-12-11T06:33:53;10.00;;;5.18;;
74541;SDS011;63015;45.378;20.360;2022-12-11T06:35:54;5.45;;;2.75;;
74541;SDS011;63015;45.378;20.360;2022-12-11T06:37:55;7.43;;;3.90;;
74541;SDS011;63015;45.378;20.360;2022-12-11T06:39:55;8.18;;;3.67;;
74541;SDS011;63015;45.378;20.360;2022-12-11T06:41:56;7.13;;;3.75;;
74541;SDS011;63015;45.378;20.360;2022-12-11T06:43:56;4.95;;;2.83;;
74541;SDS011;63015;45.378;20.360;2022-12-11T06:45:57;5.80;;;3.13;;
74541;SDS011;63015;45.378;20.360;2022-12-11T06:47:58;6.00;;;2.78;;
74541;SDS011;63015;45.378;20.360;2022-12-11T06:49:59;9.73;;;4.35;;
74541;SDS011;63015;45.378;20.360;2022-12-11T06:52:00;7.93;;;2.88;;
74541;SDS011;63015;45.378;20.360;2022-12-11T06:54:00;11.50;;;4.10;;
74541;SDS011;63015;45.378;20.360;2022-12-11T06:56:02;9.60;;;4.82;;
74541;SDS011;63015;45.378;20.360;2022-12-11T06:58:08;8.32;;;3.75;;
74541;SDS011;63015;45.378;20.360;2022-12-11T07:00:10;7.28;;;3.78;;
74541;SDS011;63015;45.378;20.360;2022-12-11T07:02:15;6.35;;;2.95;;
74541;SDS011;63015;45.378;20.360;2022-12-11T07:04:16;9.75;;;4.47;;
74541;SDS011;63015;45.378;20.360;2022-12-11T07:06:17;10.98;;;4.70;;
74541;SDS011;63015;45.378;20.360;2022-12-11T07:08:18;7.93;;;4.28;;
74541;SDS011;63015;45.378;20.360;2022-12-11T07:10:19;5.78;;;2.85;;
74541;SDS011;63015;45.378;20.360;2022-12-11T07:12:20;8.25;;;2.92;;
74541;SDS011;63015;45.378;20.360;2022-12-11T07:14:20;6.43;;;2.90;;
74541;SDS011;63015;45.378;20.360;2022-12-11T07:16:21;7.93;;;3.70;;
74541;SDS011;63015;45.378;20.360;2022-12-11T07:18:21;9.18;;;3.42;;
74541;SDS011;63015;45.378;20.360;2022-12-11T07:20:22;6.05;;;3.10;;
74541;SDS011;63015;45.378;20.360;2022-12-11T07:22:23;8.27;;;4.30;;
74541;SDS011;63015;45.378;20.360;2022-12-11T07:24:23;7.88;;;3.65;;
74541;SDS011;63015;45.378;20.360;2022-12-11T07:26:24;6.68;;;3.50;;
74541;SDS011;63015;45.378;20.360;2022-12-11T07:28:25;6.90;;;3.50;;
74541;SDS011;63015;45.378;20.360;2022-12-11T07:30:26;7.63;;;3.47;;
74541;SDS011;63015;45.378;20.360;2022-12-11T07:32:26;8.18;;;3.95;;
74541;SDS011;63015;45.378;20.360;2022-12-11T07:34:27;5.57;;;2.88;;
74541;SDS011;63015;45.378;20.360;2022-12-11T07:36:28;9.02;;;3.28;;
74541;SDS011;63015;45.378;20.360;2022-12-11T07:38:29;8.10;;;3.83;;
74541;SDS011;63015;45.378;20.360;2022-12-11T07:40:31;9.65;;;3.83;;
74541;SDS011;63015;45.378;20.360;2022-12-11T07:42:32;6.72;;;3.58;;
74541;SDS011;63015;45.378;20.360;2022-12-11T07:44:33;7.28;;;2.88;;
74541;SDS011;63015;45.378;20.360;2022-12-11T07:46:33;8.60;;;3.45;;
74541;SDS011;63015;45.378;20.360;2022-12-11T07:48:35;9.43;;;4.32;;
74541;SDS011;63015;45.378;20.360;2022-12-11T07:50:36;9.73;;;3.58;;
74541;SDS011;63015;45.378;20.360;2022-12-11T07:52:37;5.35;;;2.78;;
74541;SDS011;63015;45.378;20.360;2022-12-11T07:54:37;9.63;;;3.28;;
74541;SDS011;63015;45.378;20.360;2022-12-11T07:56:38;7.05;;;3.00;;
74541;SDS011;63015;45.378;20.360;2022-12-11T07:58:38;9.52;;;3.92;;
74541;SDS011;63015;45.378;20.360;2022-12-11T08:00:39;9.07;;;4.50;;
74541;SDS011;63015;45.378;20.360;2022-12-11T08:02:39;4.93;;;2.45;;
74541;SDS011;63015;45.378;20.360;2022-12-11T08:04:40;7.45;;;4.05;;
74541;SDS011;63015;45.378;20.360;2022-12-11T08:06:41;6.47;;;3.17;;
74541;SDS011;63015;45.378;20.360;2022-12-11T08:08:42;10.02;;;5.18;;
74541;SDS011;63015;45.378;20.360;2022-12-11T08:10:43;7.13;;;3.60;;
74541;SDS011;63015;45.378;20.360;2022-12-11T08:12:44;7.32;;;3.08;;
74541;SDS011;63015;45.378;20.360;2022-12-11T08:14:45;6.03;;;3.00;;
74541;SDS011;63015;45.378;20.360;2022-12-11T08:16:45;10.00;;;4.50;;
74541;SDS011;63015;45.378;20.360;2022-12-11T08:18:46;8.77;;;4.60;;
74541;SDS011;63015;45.378;20.360;2022-12-11T08:20:47;9.63;;;4.38;;
74541;SDS011;63015;45.378;20.360;2022-12-11T08:22:48;9.65;;;3.15;;
74541;SDS011;63015;45.378;20.360;2022-12-11T08:24:48;10.77;;;4.25;;
74541;SDS011;63015;45.378;20.360;2022-12-11T08:26:49;8.60;;;4.57;;
74541;SDS011;63015;45.378;20.360;2022-12-11T08:28:49;9.38;;;4.45;;
74541;SDS011;63015;45.378;20.360;2022-12-11T08:30:50;7.82;;;3.88;;
74541;SDS011;63015;45.378;20.360;2022-12-11T08:32:51;11.88;;;4.68;;
74541;SDS011;63015;45.378;20.360;2022-12-11T08:34:52;9.95;;;4.57;;
74541;SDS011;63015;45.378;20.360;2022-12-11T08:36:52;13.75;;;6.10;;
74541;SDS011;63015;45.378;20.360;2022-12-11T08:38:54;11.52;;;5.13;;
74541;SDS011;63015;45.378;20.360;2022-12-11T08:40:55;12.38;;;5.00;;
74541;SDS011;63015;45.378;20.360;2022-12-11T08:42:56;13.35;;;6.15;;
74541;SDS011;63015;45.378;20.360;2022-12-11T08:44:56;9.07;;;4.43;;
74541;SDS011;63015;45.378;20.360;2022-12-11T08:46:57;12.52;;;6.53;;
74541;SDS011;63015;45.378;20.360;2022-12-11T08:48:58;16.05;;;6.30;;
74541;SDS011;63015;45.378;20.360;2022-12-11T08:51:02;15.52;;;7.53;;
74541;SDS011;63015;45.378;20.360;2022-12-11T08:53:05;14.45;;;6.22;;
74541;SDS011;63015;45.378;20.360;2022-12-11T08:55:05;9.98;;;5.13;;
74541;SDS011;63015;45.378;20.360;2022-12-11T08:57:06;15.05;;;7.15;;
74541;SDS011;63015;45.378;20.360;2022-12-11T08:59:07;15.43;;;6.85;;
74541;SDS011;63015;45.378;20.360;2022-12-11T09:01:12;14.48;;;7.25;;
74541;SDS011;63015;45.378;20.360;2022-12-11T09:03:15;10.65;;;5.50;;
74541;SDS011;63015;45.378;20.360;2022-12-11T09:05:16;15.23;;;6.18;;
74541;SDS011;63015;45.378;20.360;2022-12-11T09:07:16;14.63;;;7.47;;
74541;SDS011;63015;45.378;20.360;2022-12-11T09:09:17;14.23;;;5.38;;
74541;SDS011;63015;45.378;20.360;2022-12-11T09:11:22;17.00;;;7.93;;
74541;SDS011;63015;45.378;20.360;2022-12-11T09:13:24;15.73;;;7.35;;
74541;SDS011;63015;45.378;20.360;2022-12-11T09:15:25;13.57;;;6.32;;
74541;SDS011;63015;45.378;20.360;2022-12-11T09:17:25;13.40;;;5.22;;
74541;SDS011;63015;45.378;20.360;2022-12-11T09:19:26;15.70;;;7.07;;
74541;SDS011;63015;45.378;20.360;2022-12-11T09:21:27;15.43;;;7.72;;
74541;SDS011;63015;45.378;20.360;2022-12-11T09:23:29;13.57;;;6.32;;
74541;SDS011;63015;45.378;20.360;2022-12-11T09:25:30;18.73;;;7.82;;
74541;SDS011;63015;45.378;20.360;2022-12-11T09:27:32;11.43;;;4.85;;
74541;SDS011;63015;45.378;20.360;2022-12-11T09:29:33;13.32;;;5.97;;
74541;SDS011;63015;45.378;20.360;2022-12-11T09:31:34;13.13;;;5.50;;
74541;SDS011;63015;45.378;20.360;2022-12-11T09:33:35;11.60;;;4.32;;
74541;SDS011;63015;45.378;20.360;2022-12-11T09:35:36;22.85;;;6.13;;
74541;SDS011;63015;45.378;20.360;2022-12-11T09:37:36;11.95;;;5.03;;
74541;SDS011;63015;45.378;20.360;2022-12-11T09:39:37;12.77;;;5.85;;
74541;SDS011;63015;45.378;20.360;2022-12-11T09:45:57;14.95;;;6.95;;
74541;SDS011;63015;45.378;20.360;2022-12-11T09:48:02;15.82;;;6.60;;
74541;SDS011;63015;45.378;20.360;2022-12-11T09:52:22;12.93;;;5.15;;
74541;SDS011;63015;45.378;20.360;2022-12-11T09:54:33;12.88;;;5.15;;
74541;SDS011;63015;45.378;20.360;2022-12-11T09:56:35;16.38;;;7.55;;
74541;SDS011;63015;45.378;20.360;2022-12-11T10:00:48;10.02;;;4.57;;
74541;SDS011;63015;45.378;20.360;2022-12-11T10:05:28;19.83;;;9.02;;
74541;SDS011;63015;45.378;20.360;2022-12-11T10:16:47;14.88;;;6.82;;
74541;SDS011;63015;45.378;20.360;2022-12-11T10:18:51;14.73;;;6.68;;
74541;SDS011;63015;45.378;20.360;2022-12-11T10:20:52;9.20;;;4.93;;
74541;SDS011;63015;45.378;20.360;2022-12-11T10:22:55;9.95;;;4.20;;
74541;SDS011;63015;45.378;20.360;2022-12-11T10:27:18;7.78;;;3.58;;
74541;SDS011;63015;45.378;20.360;2022-12-11T10:29:21;18.65;;;7.38;;
74541;SDS011;63015;45.378;20.360;2022-12-11T10:35:57;17.00;;;6.32;;
74541;SDS011;63015;45.378;20.360;2022-12-11T10:38:00;19.13;;;7.78;;
74541;SDS011;63015;45.378;20.360;2022-12-11T10:40:11;8.40;;;3.20;;
74541;SDS011;63015;45.378;20.360;2022-12-11T10:42:16;17.67;;;7.80;;
74541;SDS011;63015;45.378;20.360;2022-12-11T10:46:24;19.48;;;7.50;;
74541;SDS011;63015;45.378;20.360;2022-12-11T10:48:27;14.75;;;5.90;;
74541;SDS011;63015;45.378;20.360;2022-12-11T10:50:28;13.48;;;7.05;;
74541;SDS011;63015;45.378;20.360;2022-12-11T10:52:32;22.50;;;10.00;;
74541;SDS011;63015;45.378;20.360;2022-12-11T10:54:38;18.50;;;7.47;;
74541;SDS011;63015;45.378;20.360;2022-12-11T10:56:43;15.48;;;7.35;;
74541;SDS011;63015;45.378;20.360;2022-12-11T10:58:47;17.45;;;7.25;;
74541;SDS011;63015;45.378;20.360;2022-12-11T11:01:01;13.30;;;6.30;;
74541;SDS011;63015;45.378;20.360;2022-12-11T11:03:24;16.23;;;6.95;;
74541;SDS011;63015;45.378;20.360;2022-12-11T11:05:33;13.70;;;6.45;;
74541;SDS011;63015;45.378;20.360;2022-12-11T11:07:35;9.18;;;4.20;;
74541;SDS011;63015;45.378;20.360;2022-12-11T11:09:36;10.50;;;5.05;;
74541;SDS011;63015;45.378;20.360;2022-12-11T11:11:36;13.05;;;5.93;;
74541;SDS011;63015;45.378;20.360;2022-12-11T11:13:37;16.52;;;6.68;;
74541;SDS011;63015;45.378;20.360;2022-12-11T11:15:38;17.02;;;7.68;;
74541;SDS011;63015;45.378;20.360;2022-12-11T11:17:49;27.80;;;12.07;;
74541;SDS011;63015;45.378;20.360;2022-12-11T11:19:54;26.73;;;10.63;;
74541;SDS011;63015;45.378;20.360;2022-12-11T11:22:00;13.45;;;5.88;;
74541;SDS011;63015;45.378;20.360;2022-12-11T11:24:18;19.10;;;7.28;;
74541;SDS011;63015;45.378;20.360;2022-12-11T11:26:26;23.52;;;9.90;;
74541;SDS011;63015;45.378;20.360;2022-12-11T11:28:35;20.75;;;8.85;;
74541;SDS011;63015;45.378;20.360;2022-12-11T11:30:39;15.40;;;6.85;;
74541;SDS011;63015;45.378;20.360;2022-12-11T11:32:41;16.17;;;6.95;;
74541;SDS011;63015;45.378;20.360;2022-12-11T11:34:42;9.30;;;4.68;;
74541;SDS011;63015;45.378;20.360;2022-12-11T11:36:42;7.53;;;3.45;;
74541;SDS011;63015;45.378;20.360;2022-12-11T11:38:44;13.35;;;4.65;;
74541;SDS011;63015;45.378;20.360;2022-12-11T11:45:51;8.88;;;4.25;;
74541;SDS011;63015;45.378;20.360;2022-12-11T11:48:32;11.75;;;4.82;;
74541;SDS011;63015;45.378;20.360;2022-12-11T11:50:43;13.15;;;6.65;;
74541;SDS011;63015;45.378;20.360;2022-12-11T11:57:19;19.95;;;8.10;;
74541;SDS011;63015;45.378;20.360;2022-12-11T12:01:32;19.77;;;8.20;;
74541;SDS011;63015;45.378;20.360;2022-12-11T12:03:34;18.70;;;7.32;;
74541;SDS011;63015;45.378;20.360;2022-12-11T12:07:41;21.35;;;7.65;;
74541;SDS011;63015;45.378;20.360;2022-12-11T12:21:35;14.32;;;6.38;;
74541;SDS011;63015;45.378;20.360;2022-12-11T12:23:43;16.27;;;7.43;;
74541;SDS011;63015;45.378;20.360;2022-12-11T12:25:56;13.93;;;5.93;;
74541;SDS011;63015;45.378;20.360;2022-12-11T12:30:21;13.02;;;6.20;;
74541;SDS011;63015;45.378;20.360;2022-12-11T12:42:07;31.58;;;12.65;;
74541;SDS011;63015;45.378;20.360;2022-12-11T12:44:22;16.92;;;7.78;;
74541;SDS011;63015;45.378;20.360;2022-12-11T12:48:52;12.98;;;5.15;;
74541;SDS011;63015;45.378;20.360;2022-12-11T12:50:56;22.00;;;8.68;;
74541;SDS011;63015;45.378;20.360;2022-12-11T12:52:57;14.65;;;6.75;;
74541;SDS011;63015;45.378;20.360;2022-12-11T12:54:59;18.58;;;7.78;;
74541;SDS011;63015;45.378;20.360;2022-12-11T12:57:17;18.67;;;7.00;;
74541;SDS011;63015;45.378;20.360;2022-12-11T12:59:19;23.52;;;9.20;;
74541;SDS011;63015;45.378;20.360;2022-12-11T13:01:21;11.30;;;5.00;;
74541;SDS011;63015;45.378;20.360;2022-12-11T13:03:31;13.77;;;5.60;;
74541;SDS011;63015;45.378;20.360;2022-12-11T13:05:34;16.58;;;7.43;;
74541;SDS011;63015;45.378;20.360;2022-12-11T13:07:35;10.68;;;4.38;;
74541;SDS011;63015;45.378;20.360;2022-12-11T13:09:36;12.02;;;5.13;;
74541;SDS011;63015;45.378;20.360;2022-12-11T13:11:37;17.30;;;7.30;;
74541;SDS011;63015;45.378;20.360;2022-12-11T13:15:40;20.63;;;7.30;;
74541;SDS011;63015;45.378;20.360;2022-12-11T13:17:42;20.77;;;7.40;;
74541;SDS011;63015;45.378;20.360;2022-12-11T13:19:43;13.77;;;5.75;;
74541;SDS011;63015;45.378;20.360;2022-12-11T13:21:53;14.13;;;5.82;;
74541;SDS011;63015;45.378;20.360;2022-12-11T13:24:43;21.05;;;6.85;;
74541;SDS011;63015;45.378;20.360;2022-12-11T13:26:32;21.25;;;7.32;;
74541;SDS011;63015;45.378;20.360;2022-12-11T13:28:45;21.38;;;8.50;;
74541;SDS011;63015;45.378;20.360;2022-12-11T13:33:05;16.45;;;7.32;;
74541;SDS011;63015;45.378;20.360;2022-12-11T13:35:14;19.17;;;7.35;;
74541;SDS011;63015;45.378;20.360;2022-12-11T13:37:26;18.48;;;6.68;;
74541;SDS011;63015;45.378;20.360;2022-12-11T13:39:36;15.40;;;6.47;;
74541;SDS011;63015;45.378;20.360;2022-12-11T13:41:38;15.18;;;7.60;;
74541;SDS011;63015;45.378;20.360;2022-12-11T13:43:40;19.02;;;7.63;;